sensor_id;sensor_type;location;lat;lon;timestamp;pressure;altitude;pressure_sealevel;temperature;humidity
21742;BME280;11033;47.490;11.116;2023-05-03T00:01:54;93772.50;;;6.19;100.00
21742;BME280;11033;47.490;11.116;2023-05-03T00:04:19;93771.00;;;6.17;100.00
21742;BME280;11033;47.490;11.116;2023-05-03T00:06:45;93760.41;;;6.18;100.00
21742;BME280;11033;47.490;11.116;2023-05-03T00:09:10;93765.34;;;6.21;100.00
21742;BME280;11033;47.490;11.116;2023-05-03T00:11:36;93773.47;;;6.18;100.00
21742;BME280;11033;47.490;11.116;2023-05-03T00:14:01;93771.84;;;6.17;100.00
21742;BME280;11033;47.490;11.116;2023-05-03T00:16:27;93761.66;;;6.14;100.00
21742;BME280;11033;47.490;11.116;2023-05-03T00:18:52;93766.22;;;6.12;100.00
21742;BME280;11033;47.490;11.116;2023-05-03T00:21:17;93769.13;;;6.09;100.00
21742;BME280;11033;47.490;11.116;2023-05-03T00:23:42;93771.50;;;6.02;100.00
21742;BME280;11033;47.490;11.116;2023-05-03T00:26:08;93767.16;;;5.93;100.00
21742;BME280;11033;47.490;11.116;2023-05-03T00:28:33;93768.66;;;5.96;100.00
21742;BME280;11033;47.490;11.116;2023-05-03T00:31:06;93769.03;;;6.01;100.00
21742;BME280;11033;47.490;11.116;2023-05-03T00:33:32;93763.44;;;5.96;100.00
21742;BME280;11033;47.490;11.116;2023-05-03T00:35:57;93769.50;;;6.14;100.00
21742;BME280;11033;47.490;11.116;2023-05-03T00:38:22;93766.50;;;6.09;100.00
21742;BME280;11033;47.490;11.116;2023-05-03T00:40:54;93760.53;;;5.99;100.00
21742;BME280;11033;47.490;11.116;2023-05-03T00:43:19;93759.84;;;5.97;100.00
21742;BME280;11033;47.490;11.116;2023-05-03T00:45:44;93754.03;;;6.03;100.00
21742;BME280;11033;47.490;11.116;2023-05-03T00:48:11;93759.56;;;6.00;100.00
21742;BME280;11033;47.490;11.116;2023-05-03T00:50:37;93759.56;;;6.00;100.00
21742;BME280;11033;47.490;11.116;2023-05-03T00:53:03;93753.28;;;5.93;100.00
21742;BME280;11033;47.490;11.116;2023-05-03T00:55:29;93752.59;;;5.91;100.00
21742;BME280;11033;47.490;11.116;2023-05-03T00:57:56;93750.56;;;5.75;100.00
21742;BME280;11033;47.490;11.116;2023-05-03T01:00:22;93750.19;;;5.70;100.00
21742;BME280;11033;47.490;11.116;2023-05-03T01:02:47;93755.16;;;5.63;100.00
21742;BME280;11033;47.490;11.116;2023-05-03T01:05:14;93757.38;;;5.58;100.00
21742;BME280;11033;47.490;11.116;2023-05-03T01:13:23;93754.19;;;5.37;100.00
21742;BME280;11033;47.490;11.116;2023-05-03T01:16:33;93750.22;;;5.33;100.00
21742;BME280;11033;47.490;11.116;2023-05-03T01:19:05;93759.59;;;5.26;100.00
21742;BME280;11033;47.490;11.116;2023-05-03T01:21:37;93754.09;;;5.29;100.00
21742;BME280;11033;47.490;11.116;2023-05-03T01:24:17;93749.16;;;5.26;100.00
21742;BME280;11033;47.490;11.116;2023-05-03T01:26:46;93748.31;;;5.16;100.00
21742;BME280;11033;47.490;11.116;2023-05-03T01:29:11;93751.38;;;5.11;100.00
21742;BME280;11033;47.490;11.116;2023-05-03T01:31:56;93753.97;;;5.11;100.00
21742;BME280;11033;47.490;11.116;2023-05-03T01:36:49;93757.28;;;5.23;100.00
21742;BME280;11033;47.490;11.116;2023-05-03T01:39:21;93754.63;;;5.32;100.00
21742;BME280;11033;47.490;11.116;2023-05-03T01:41:49;93760.66;;;5.33;100.00
21742;BME280;11033;47.490;11.116;2023-05-03T01:44:16;93758.72;;;5.35;100.00
21742;BME280;11033;47.490;11.116;2023-05-03T01:46:43;93762.72;;;5.39;100.00
21742;BME280;11033;47.490;11.116;2023-05-03T01:49:09;93759.56;;;5.35;100.00
21742;BME280;11033;47.490;11.116;2023-05-03T01:51:34;93756.56;;;5.30;100.00
21742;BME280;11033;47.490;11.116;2023-05-03T01:53:59;93756.41;;;5.32;100.00
21742;BME280;11033;47.490;11.116;2023-05-03T01:56:25;93758.72;;;5.35;100.00
21742;BME280;11033;47.490;11.116;2023-05-03T01:58:51;93756.63;;;5.48;100.00
21742;BME280;11033;47.490;11.116;2023-05-03T02:01:16;93756.09;;;5.45;100.00
21742;BME280;11033;47.490;11.116;2023-05-03T02:03:41;93760.28;;;5.55;100.00
21742;BME280;11033;47.490;11.116;2023-05-03T02:06:07;93758.66;;;5.54;100.00
21742;BME280;11033;47.490;11.116;2023-05-03T02:08:32;93759.56;;;5.63;100.00
21742;BME280;11033;47.490;11.116;2023-05-03T02:10:57;93762.72;;;5.66;100.00
21742;BME280;11033;47.490;11.116;2023-05-03T02:13:22;93762.72;;;5.66;100.00
21742;BME280;11033;47.490;11.116;2023-05-03T02:15:48;93758.56;;;5.73;100.00
21742;BME280;11033;47.490;11.116;2023-05-03T02:18:13;93760.19;;;5.74;100.00
21742;BME280;11033;47.490;11.116;2023-05-03T02:20:44;93764.84;;;5.81;100.00
21742;BME280;11033;47.490;11.116;2023-05-03T02:23:09;93763.19;;;5.89;100.00
21742;BME280;11033;47.490;11.116;2023-05-03T02:25:34;93757.00;;;5.90;100.00
21742;BME280;11033;47.490;11.116;2023-05-03T02:27:59;93760.97;;;5.85;100.00
21742;BME280;11033;47.490;11.116;2023-05-03T02:30:25;93763.72;;;5.83;100.00
21742;BME280;11033;47.490;11.116;2023-05-03T02:32:50;93768.94;;;5.83;100.00
21742;BME280;11033;47.490;11.116;2023-05-03T02:35:15;93767.56;;;5.89;100.00
21742;BME280;11033;47.490;11.116;2023-05-03T02:37:41;93765.50;;;5.83;100.00
21742;BME280;11033;47.490;11.116;2023-05-03T02:40:06;93764.53;;;5.84;100.00
21742;BME280;11033;47.490;11.116;2023-05-03T02:42:33;93760.19;;;5.74;100.00
21742;BME280;11033;47.490;11.116;2023-05-03T02:44:58;93757.06;;;5.71;100.00
21742;BME280;11033;47.490;11.116;2023-05-03T02:47:24;93756.22;;;5.70;100.00
21742;BME280;11033;47.490;11.116;2023-05-03T02:49:49;93754.28;;;5.72;100.00
21742;BME280;11033;47.490;11.116;2023-05-03T02:52:14;93761.06;;;5.65;100.00
21742;BME280;11033;47.490;11.116;2023-05-03T02:54:40;93765.31;;;5.66;100.00
21742;BME280;11033;47.490;11.116;2023-05-03T02:57:05;93767.13;;;5.66;100.00
21742;BME280;11033;47.490;11.116;2023-05-03T02:59:31;93764.94;;;5.61;100.00
21742;BME280;11033;47.490;11.116;2023-05-03T03:01:57;93772.09;;;5.59;100.00
21742;BME280;11033;47.490;11.116;2023-05-03T03:04:22;93768.13;;;5.55;100.00
21742;BME280;11033;47.490;11.116;2023-05-03T03:06:48;93772.69;;;5.53;100.00
21742;BME280;11033;47.490;11.116;2023-05-03T03:09:13;93767.75;;;5.50;100.00
21742;BME280;11033;47.490;11.116;2023-05-03T03:11:38;93765.47;;;5.37;100.00
21742;BME280;11033;47.490;11.116;2023-05-03T03:14:04;93770.69;;;5.37;100.00
21742;BME280;11033;47.490;11.116;2023-05-03T03:16:30;93769.97;;;5.45;100.00
21742;BME280;11033;47.490;11.116;2023-05-03T03:18:55;93774.03;;;5.57;100.00
21742;BME280;11033;47.490;11.116;2023-05-03T03:21:20;93779.94;;;5.59;100.00
21742;BME280;11033;47.490;11.116;2023-05-03T03:23:46;93777.63;;;5.56;100.00
21742;BME280;11033;47.490;11.116;2023-05-03T03:26:11;93785.56;;;5.64;100.00
21742;BME280;11033;47.490;11.116;2023-05-03T03:28:36;93789.13;;;5.63;100.00
21742;BME280;11033;47.490;11.116;2023-05-03T03:31:02;93787.31;;;5.73;100.00
21742;BME280;11033;47.490;11.116;2023-05-03T03:33:27;93790.31;;;5.79;100.00
21742;BME280;11033;47.490;11.116;2023-05-03T03:35:52;93788.56;;;5.69;100.00
21742;BME280;11033;47.490;11.116;2023-05-03T03:38:18;93783.41;;;5.50;100.00
21742;BME280;11033;47.490;11.116;2023-05-03T03:40:43;93778.41;;;5.66;100.00
21742;BME280;11033;47.490;11.116;2023-05-03T03:43:08;93785.84;;;5.61;100.00
21742;BME280;11033;47.490;11.116;2023-05-03T03:45:34;93782.44;;;5.51;100.00
21742;BME280;11033;47.490;11.116;2023-05-03T03:47:59;93779.34;;;5.38;100.00
21742;BME280;11033;47.490;11.116;2023-05-03T03:50:25;93778.00;;;5.15;100.00
21742;BME280;11033;47.490;11.116;2023-05-03T03:52:50;93772.50;;;5.18;100.00
21742;BME280;11033;47.490;11.116;2023-05-03T03:55:16;93769.91;;;5.18;100.00
21742;BME280;11033;47.490;11.116;2023-05-03T03:57:41;93776.22;;;5.15;100.00
21742;BME280;11033;47.490;11.116;2023-05-03T04:00:07;93773.94;;;5.02;100.00
21742;BME280;11033;47.490;11.116;2023-05-03T04:02:35;93774.88;;;5.01;100.00
21742;BME280;11033;47.490;11.116;2023-05-03T04:05:01;93771.28;;;5.12;100.00
21742;BME280;11033;47.490;11.116;2023-05-03T04:07:26;93764.41;;;5.21;100.00
21742;BME280;11033;47.490;11.116;2023-05-03T04:09:52;93777.19;;;5.24;100.00
21742;BME280;11033;47.490;11.116;2023-05-03T04:12:17;93777.88;;;5.16;100.00
21742;BME280;11033;47.490;11.116;2023-05-03T04:14:42;93773.34;;;5.28;100.00
21742;BME280;11033;47.490;11.116;2023-05-03T04:17:08;93773.75;;;5.23;100.00
21742;BME280;11033;47.490;11.116;2023-05-03T04:19:33;93778.69;;;5.26;100.00
21742;BME280;11033;47.490;11.116;2023-05-03T04:21:59;93768.69;;;5.22;100.00
21742;BME280;11033;47.490;11.116;2023-05-03T04:24:25;93779.53;;;5.17;100.00
21742;BME280;11033;47.490;11.116;2023-05-03T04:26:51;93778.16;;;5.23;100.00
21742;BME280;11033;47.490;11.116;2023-05-03T04:29:17;93774.97;;;5.29;100.00
21742;BME280;11033;47.490;11.116;2023-05-03T04:31:44;93777.16;;;5.33;100.00
21742;BME280;11033;47.490;11.116;2023-05-03T04:34:09;93781.84;;;5.30;100.00
21742;BME280;11033;47.490;11.116;2023-05-03T04:36:39;93782.34;;;5.43;100.00
21742;BME280;11033;47.490;11.116;2023-05-03T04:39:06;93786.22;;;5.39;100.00
21742;BME280;11033;47.490;11.116;2023-05-03T04:41:32;93777.69;;;5.37;100.00
21742;BME280;11033;47.490;11.116;2023-05-03T04:43:58;93772.19;;;5.40;100.00
21742;BME280;11033;47.490;11.116;2023-05-03T04:46:23;93769.72;;;5.38;100.00
21742;BME280;11033;47.490;11.116;2023-05-03T04:48:49;93772.78;;;5.24;100.00
21742;BME280;11033;47.490;11.116;2023-05-03T04:51:14;93768.59;;;5.41;100.00
21742;BME280;11033;47.490;11.116;2023-05-03T04:53:40;93772.28;;;5.48;100.00
21742;BME280;11033;47.490;11.116;2023-05-03T04:56:05;93772.44;;;5.47;100.00
21742;BME280;11033;47.490;11.116;2023-05-03T04:58:31;93774.03;;;5.57;100.00
21742;BME280;11033;47.490;11.116;2023-05-03T05:00:57;93775.97;;;5.55;100.00
21742;BME280;11033;47.490;11.116;2023-05-03T05:03:22;93775.00;;;5.56;100.00
21742;BME280;11033;47.490;11.116;2023-05-03T05:05:47;93779.50;;;5.64;100.00
21742;BME280;11033;47.490;11.116;2023-05-03T05:08:13;93783.63;;;5.66;100.00
21742;BME280;11033;47.490;11.116;2023-05-03T05:10:41;93781.19;;;5.55;100.00
21742;BME280;11033;47.490;11.116;2023-05-03T05:13:07;93780.88;;;5.68;100.00
21742;BME280;11033;47.490;11.116;2023-05-03T05:15:32;93777.97;;;5.71;100.00
21742;BME280;11033;47.490;11.116;2023-05-03T05:17:57;93779.16;;;5.77;100.00
21742;BME280;11033;47.490;11.116;2023-05-03T05:20:23;93768.13;;;5.83;100.00
21742;BME280;11033;47.490;11.116;2023-05-03T05:22:48;93767.06;;;5.76;100.00
21742;BME280;11033;47.490;11.116;2023-05-03T05:25:14;93774.59;;;5.88;100.00
21742;BME280;11033;47.490;11.116;2023-05-03T05:27:39;93777.50;;;5.85;100.00
21742;BME280;11033;47.490;11.116;2023-05-03T05:30:05;93784.38;;;5.86;100.00
21742;BME280;11033;47.490;11.116;2023-05-03T05:32:31;93785.47;;;5.84;100.00
21742;BME280;11033;47.490;11.116;2023-05-03T05:34:56;93789.97;;;6.01;100.00
21742;BME280;11033;47.490;11.116;2023-05-03T05:37:23;93794.31;;;6.10;100.00
21742;BME280;11033;47.490;11.116;2023-05-03T05:39:48;93785.88;;;6.16;100.00
21742;BME280;11033;47.490;11.116;2023-05-03T05:42:14;93787.59;;;6.08;100.00
21742;BME280;11033;47.490;11.116;2023-05-03T05:44:40;93788.13;;;6.11;100.00
21742;BME280;11033;47.490;11.116;2023-05-03T05:47:05;93790.06;;;6.09;100.00
21742;BME280;11033;47.490;11.116;2023-05-03T05:49:30;93786.94;;;6.23;100.00
21742;BME280;11033;47.490;11.116;2023-05-03T05:51:56;93784.03;;;6.26;100.00
21742;BME280;11033;47.490;11.116;2023-05-03T05:54:22;93785.00;;;6.25;100.00
21742;BME280;11033;47.490;11.116;2023-05-03T05:56:47;93772.38;;;6.39;100.00
21742;BME280;11033;47.490;11.116;2023-05-03T05:59:12;93780.22;;;6.39;100.00
21742;BME280;11033;47.490;11.116;2023-05-03T06:01:38;93772.75;;;6.44;100.00
21742;BME280;11033;47.490;11.116;2023-05-03T06:04:06;93777.63;;;6.56;100.00
21742;BME280;11033;47.490;11.116;2023-05-03T06:06:32;93773.81;;;6.51;100.00
21742;BME280;11033;47.490;11.116;2023-05-03T06:08:57;93776.13;;;6.54;100.00
21742;BME280;11033;47.490;11.116;2023-05-03T06:11:22;93775.59;;;6.68;100.00
21742;BME280;11033;47.490;11.116;2023-05-03T06:13:48;93774.03;;;6.75;99.78
21742;BME280;11033;47.490;11.116;2023-05-03T06:16:13;93778.59;;;6.73;100.00
21742;BME280;11033;47.490;11.116;2023-05-03T06:18:38;93779.94;;;6.77;100.00
21742;BME280;11033;47.490;11.116;2023-05-03T06:21:04;93782.25;;;6.80;100.00
21742;BME280;11033;47.490;11.116;2023-05-03T06:23:29;93776.81;;;6.99;99.66
21742;BME280;11033;47.490;11.116;2023-05-03T06:25:54;93778.38;;;7.10;100.00
21742;BME280;11033;47.490;11.116;2023-05-03T06:28:20;93786.91;;;7.38;100.00
21742;BME280;11033;47.490;11.116;2023-05-03T06:30:49;93773.44;;;7.93;97.83
21742;BME280;11033;47.490;11.116;2023-05-03T06:33:14;93780.63;;;8.33;96.49
21742;BME280;11033;47.490;11.116;2023-05-03T06:35:40;93776.63;;;8.63;93.70
21742;BME280;11033;47.490;11.116;2023-05-03T06:38:08;93780.72;;;8.66;92.62
21742;BME280;11033;47.490;11.116;2023-05-03T06:40:35;93779.25;;;8.79;92.73
21742;BME280;11033;47.490;11.116;2023-05-03T06:43:01;93779.25;;;8.87;92.37
21742;BME280;11033;47.490;11.116;2023-05-03T06:45:26;93769.91;;;8.85;91.89
21742;BME280;11033;47.490;11.116;2023-05-03T06:47:51;93776.63;;;8.87;91.46
21742;BME280;11033;47.490;11.116;2023-05-03T06:50:17;93770.06;;;8.92;91.36
21742;BME280;11033;47.490;11.116;2023-05-03T06:52:44;93766.44;;;8.93;91.18
21742;BME280;11033;47.490;11.116;2023-05-03T06:55:10;93774.50;;;8.91;91.72
21742;BME280;11033;47.490;11.116;2023-05-03T06:57:35;93771.03;;;8.99;90.54
21742;BME280;11033;47.490;11.116;2023-05-03T07:00:01;93772.03;;;8.89;90.87
21742;BME280;11033;47.490;11.116;2023-05-03T07:02:26;93765.78;;;8.99;89.93
21742;BME280;11033;47.490;11.116;2023-05-03T07:04:51;93774.00;;;8.96;89.40
21742;BME280;11033;47.490;11.116;2023-05-03T07:07:17;93766.44;;;9.09;89.64
21742;BME280;11033;47.490;11.116;2023-05-03T07:09:42;93766.63;;;9.15;89.40
21742;BME280;11033;47.490;11.116;2023-05-03T07:12:08;93764.97;;;9.14;88.94
21742;BME280;11033;47.490;11.116;2023-05-03T07:14:33;93773.03;;;9.21;89.68
21742;BME280;11033;47.490;11.116;2023-05-03T07:16:58;93761.19;;;9.33;89.64
21742;BME280;11033;47.490;11.116;2023-05-03T07:19:24;93761.63;;;9.45;88.44
21742;BME280;11033;47.490;11.116;2023-05-03T07:21:49;93758.50;;;9.49;87.32
21742;BME280;11033;47.490;11.116;2023-05-03T07:24:15;93754.56;;;9.53;86.43
21742;BME280;11033;47.490;11.116;2023-05-03T07:26:40;93756.47;;;9.68;87.46
21742;BME280;11033;47.490;11.116;2023-05-03T07:29:05;93747.25;;;9.72;86.72
21742;BME280;11033;47.490;11.116;2023-05-03T07:31:31;93751.19;;;9.84;86.62
21742;BME280;11033;47.490;11.116;2023-05-03T07:33:56;93752.75;;;10.01;85.67
21742;BME280;11033;47.490;11.116;2023-05-03T07:36:22;93752.69;;;10.17;83.08
21742;BME280;11033;47.490;11.116;2023-05-03T07:38:47;93754.72;;;10.38;82.48
21742;BME280;11033;47.490;11.116;2023-05-03T07:41:12;93755.72;;;10.45;82.29
21742;BME280;11033;47.490;11.116;2023-05-03T07:43:38;93746.69;;;10.63;81.63
21742;BME280;11033;47.490;11.116;2023-05-03T07:46:03;93754.31;;;10.80;81.29
21742;BME280;11033;47.490;11.116;2023-05-03T07:48:28;93741.06;;;10.89;80.87
21742;BME280;11033;47.490;11.116;2023-05-03T07:50:53;93752.69;;;10.79;80.30
21742;BME280;11033;47.490;11.116;2023-05-03T07:53:19;93740.31;;;10.80;79.76
21742;BME280;11033;47.490;11.116;2023-05-03T07:55:44;93746.94;;;10.76;79.61
21742;BME280;11033;47.490;11.116;2023-05-03T07:58:09;93741.31;;;10.79;77.98
21742;BME280;11033;47.490;11.116;2023-05-03T08:00:35;93739.09;;;10.91;78.38
21742;BME280;11033;47.490;11.116;2023-05-03T08:03:00;93737.34;;;11.06;78.20
21742;BME280;11033;47.490;11.116;2023-05-03T08:05:28;93732.06;;;11.06;76.72
21742;BME280;11033;47.490;11.116;2023-05-03T08:07:53;93736.81;;;11.25;77.07
21742;BME280;11033;47.490;11.116;2023-05-03T08:10:19;93736.94;;;11.32;76.45
21742;BME280;11033;47.490;11.116;2023-05-03T08:12:44;93734.09;;;11.33;76.30
21742;BME280;11033;47.490;11.116;2023-05-03T08:15:10;93734.47;;;11.30;75.62
21742;BME280;11033;47.490;11.116;2023-05-03T08:17:43;93718.91;;;11.35;75.80
21742;BME280;11033;47.490;11.116;2023-05-03T08:20:09;93722.75;;;11.48;75.33
21742;BME280;11033;47.490;11.116;2023-05-03T08:22:35;93732.94;;;11.51;74.82
21742;BME280;11033;47.490;11.116;2023-05-03T08:25:02;93736.84;;;11.55;73.23
21742;BME280;11033;47.490;11.116;2023-05-03T08:27:28;93727.94;;;11.56;74.05
21742;BME280;11033;47.490;11.116;2023-05-03T08:29:54;93729.50;;;11.65;74.70
21742;BME280;11033;47.490;11.116;2023-05-03T08:32:19;93724.56;;;11.47;74.92
21742;BME280;11033;47.490;11.116;2023-05-03T08:34:45;93730.66;;;11.48;74.28
21742;BME280;11033;47.490;11.116;2023-05-03T08:37:11;93719.81;;;11.80;74.72
21742;BME280;11033;47.490;11.116;2023-05-03T08:39:36;93718.25;;;11.86;74.01
21742;BME280;11033;47.490;11.116;2023-05-03T08:42:08;93710.59;;;11.91;73.80
21742;BME280;11033;47.490;11.116;2023-05-03T08:44:44;93709.19;;;12.10;73.49
21742;BME280;11033;47.490;11.116;2023-05-03T08:47:13;93708.94;;;12.04;73.63
21742;BME280;11033;47.490;11.116;2023-05-03T08:49:40;93711.13;;;12.01;73.76
21742;BME280;11033;47.490;11.116;2023-05-03T08:52:08;93708.63;;;12.29;74.28
21742;BME280;11033;47.490;11.116;2023-05-03T08:54:34;93704.38;;;12.49;74.99
21742;BME280;11033;47.490;11.116;2023-05-03T08:56:59;93699.59;;;12.38;73.04
21742;BME280;11033;47.490;11.116;2023-05-03T08:59:25;93703.50;;;12.42;72.46
21742;BME280;11033;47.490;11.116;2023-05-03T09:01:52;93695.13;;;12.60;72.36
21742;BME280;11033;47.490;11.116;2023-05-03T09:04:17;93692.50;;;12.60;73.25
21742;BME280;11033;47.490;11.116;2023-05-03T09:06:43;93693.94;;;12.84;73.35
21742;BME280;11033;47.490;11.116;2023-05-03T09:09:09;93688.50;;;13.13;74.57
21742;BME280;11033;47.490;11.116;2023-05-03T09:11:37;93690.91;;;13.08;74.47
21742;BME280;11033;47.490;11.116;2023-05-03T09:14:14;93686.38;;;13.23;73.90
21742;BME280;11033;47.490;11.116;2023-05-03T09:16:41;93683.44;;;13.40;74.09
21742;BME280;11033;47.490;11.116;2023-05-03T09:19:09;93677.56;;;13.44;72.57
21742;BME280;11033;47.490;11.116;2023-05-03T09:21:37;93680.56;;;13.35;73.21
21742;BME280;11033;47.490;11.116;2023-05-03T09:24:12;93676.75;;;13.44;71.11
21742;BME280;11033;47.490;11.116;2023-05-03T09:26:38;93674.00;;;13.65;71.66
21742;BME280;11033;47.490;11.116;2023-05-03T09:29:05;93671.31;;;13.93;72.90
21742;BME280;11033;47.490;11.116;2023-05-03T09:31:32;93672.59;;;14.04;71.65
21742;BME280;11033;47.490;11.116;2023-05-03T09:33:57;93672.91;;;13.81;69.58
21742;BME280;11033;47.490;11.116;2023-05-03T09:36:23;93667.59;;;14.28;69.42
21742;BME280;11033;47.490;11.116;2023-05-03T09:38:50;93671.56;;;14.52;69.75
21742;BME280;11033;47.490;11.116;2023-05-03T09:41:30;93665.28;;;14.67;68.78
21742;BME280;11033;47.490;11.116;2023-05-03T09:43:56;93658.34;;;14.72;69.64
21742;BME280;11033;47.490;11.116;2023-05-03T09:46:26;93653.50;;;15.02;68.10
21742;BME280;11033;47.490;11.116;2023-05-03T09:48:54;93654.28;;;15.22;67.58
21742;BME280;11033;47.490;11.116;2023-05-03T09:51:21;93651.03;;;15.20;67.82
21742;BME280;11033;47.490;11.116;2023-05-03T09:53:48;93653.69;;;15.14;66.20
21742;BME280;11033;47.490;11.116;2023-05-03T09:56:13;93651.63;;;15.36;64.93
21742;BME280;11033;47.490;11.116;2023-05-03T09:58:39;93644.28;;;15.25;65.45
21742;BME280;11033;47.490;11.116;2023-05-03T10:01:06;93640.19;;;15.62;64.61
21742;BME280;11033;47.490;11.116;2023-05-03T10:03:40;93641.59;;;15.51;67.33
21742;BME280;11033;47.490;11.116;2023-05-03T10:06:23;93641.63;;;15.25;65.17
21742;BME280;11033;47.490;11.116;2023-05-03T10:11:33;93630.59;;;16.12;64.09
21742;BME280;11033;47.490;11.116;2023-05-03T10:13:59;93631.19;;;15.43;64.78
21742;BME280;11033;47.490;11.116;2023-05-03T10:16:29;93639.75;;;15.58;64.55
21742;BME280;11033;47.490;11.116;2023-05-03T10:19:16;93633.41;;;16.30;65.55
21742;BME280;11033;47.490;11.116;2023-05-03T10:21:54;93625.09;;;16.52;64.14
21742;BME280;11033;47.490;11.116;2023-05-03T10:24:23;93621.25;;;16.47;63.79
21742;BME280;11033;47.490;11.116;2023-05-03T10:26:50;93617.91;;;16.59;62.40
21742;BME280;11033;47.490;11.116;2023-05-03T10:29:49;93620.72;;;17.45;61.86
21742;BME280;11033;47.490;11.116;2023-05-03T10:32:35;93614.56;;;17.88;60.51
21742;BME280;11033;47.490;11.116;2023-05-03T10:35:11;93613.53;;;17.89;58.53
21742;BME280;11033;47.490;11.116;2023-05-03T10:37:39;93611.31;;;17.67;60.42
21742;BME280;11033;47.490;11.116;2023-05-03T10:40:15;93612.28;;;17.48;59.59
21742;BME280;11033;47.490;11.116;2023-05-03T10:42:46;93612.22;;;18.46;58.18
21742;BME280;11033;47.490;11.116;2023-05-03T10:45:24;93606.44;;;17.83;57.63
21742;BME280;11033;47.490;11.116;2023-05-03T10:50:38;93616.34;;;17.51;58.51
21742;BME280;11033;47.490;11.116;2023-05-03T10:53:03;93609.19;;;17.76;59.85
21742;BME280;11033;47.490;11.116;2023-05-03T10:55:29;93617.00;;;18.26;58.17
21742;BME280;11033;47.490;11.116;2023-05-03T10:57:56;93611.78;;;17.83;59.35
21742;BME280;11033;47.490;11.116;2023-05-03T11:03:21;93608.09;;;18.32;58.89
21742;BME280;11033;47.490;11.116;2023-05-03T11:05:52;93601.59;;;18.88;57.63
21742;BME280;11033;47.490;11.116;2023-05-03T11:08:21;93601.66;;;18.69;55.84
21742;BME280;11033;47.490;11.116;2023-05-03T11:10:58;93603.47;;;18.87;57.31
21742;BME280;11033;47.490;11.116;2023-05-03T11:13:24;93603.28;;;19.94;55.47
21742;BME280;11033;47.490;11.116;2023-05-03T11:15:52;93599.59;;;19.72;56.48
21742;BME280;11033;47.490;11.116;2023-05-03T11:18:17;93603.09;;;19.60;54.85
21742;BME280;11033;47.490;11.116;2023-05-03T11:20:42;93597.59;;;20.31;53.74
21742;BME280;11033;47.490;11.116;2023-05-03T11:23:10;93598.81;;;20.11;55.13
21742;BME280;11033;47.490;11.116;2023-05-03T11:25:36;93599.94;;;19.75;53.97
21742;BME280;11033;47.490;11.116;2023-05-03T11:28:02;93616.03;;;19.22;55.48
21742;BME280;11033;47.490;11.116;2023-05-03T11:30:32;93601.13;;;19.56;55.75
21742;BME280;11033;47.490;11.116;2023-05-03T11:32:59;93600.31;;;19.55;55.02
21742;BME280;11033;47.490;11.116;2023-05-03T11:35:24;93605.66;;;19.55;54.08
21742;BME280;11033;47.490;11.116;2023-05-03T11:37:51;93610.53;;;19.58;53.64
21742;BME280;11033;47.490;11.116;2023-05-03T11:40:17;93607.09;;;19.98;53.59
21742;BME280;11033;47.490;11.116;2023-05-03T11:42:59;93597.66;;;20.07;51.60
21742;BME280;11033;47.490;11.116;2023-05-03T11:45:27;93605.41;;;19.69;53.15
21742;BME280;11033;47.490;11.116;2023-05-03T11:47:54;93602.53;;;20.22;51.84
21742;BME280;11033;47.490;11.116;2023-05-03T11:50:26;93603.03;;;20.47;51.97
21742;BME280;11033;47.490;11.116;2023-05-03T11:52:52;93603.25;;;20.17;52.61
21742;BME280;11033;47.490;11.116;2023-05-03T11:55:17;93603.22;;;20.57;51.87
21742;BME280;11033;47.490;11.116;2023-05-03T11:57:43;93605.19;;;20.62;50.51
21742;BME280;11033;47.490;11.116;2023-05-03T12:00:13;93603.66;;;20.95;50.64
21742;BME280;11033;47.490;11.116;2023-05-03T12:02:41;93589.13;;;20.62;50.90
21742;BME280;11033;47.490;11.116;2023-05-03T12:05:07;93583.38;;;21.32;51.49
21742;BME280;11033;47.490;11.116;2023-05-03T12:07:33;93589.88;;;20.74;51.76
21742;BME280;11033;47.490;11.116;2023-05-03T12:09:59;93581.25;;;21.17;50.33
21742;BME280;11033;47.490;11.116;2023-05-03T12:12:26;93581.50;;;21.66;50.56
21742;BME280;11033;47.490;11.116;2023-05-03T12:14:59;93585.72;;;21.12;50.57
21742;BME280;11033;47.490;11.116;2023-05-03T12:17:35;93578.63;;;21.73;50.21
21742;BME280;11033;47.490;11.116;2023-05-03T12:20:15;93583.75;;;21.96;49.01
21742;BME280;11033;47.490;11.116;2023-05-03T12:22:41;93580.28;;;21.57;50.58
21742;BME280;11033;47.490;11.116;2023-05-03T12:25:06;93590.41;;;22.54;47.29
21742;BME280;11033;47.490;11.116;2023-05-03T12:27:32;93588.97;;;22.46;46.78
21742;BME280;11033;47.490;11.116;2023-05-03T12:29:57;93577.13;;;22.42;46.05
21742;BME280;11033;47.490;11.116;2023-05-03T12:32:23;93580.31;;;22.18;46.57
21742;BME280;11033;47.490;11.116;2023-05-03T12:34:48;93577.16;;;22.21;46.80
21742;BME280;11033;47.490;11.116;2023-05-03T12:37:13;93577.66;;;22.18;46.76
21742;BME280;11033;47.490;11.116;2023-05-03T12:39:38;93572.25;;;21.57;47.39
21742;BME280;11033;47.490;11.116;2023-05-03T12:42:04;93566.13;;;21.45;48.37
21742;BME280;11033;47.490;11.116;2023-05-03T12:44:30;93555.09;;;21.41;48.32
21742;BME280;11033;47.490;11.116;2023-05-03T12:46:55;93565.59;;;21.26;46.85
21742;BME280;11033;47.490;11.116;2023-05-03T12:49:20;93566.66;;;21.25;45.88
21742;BME280;11033;47.490;11.116;2023-05-03T12:51:46;93566.63;;;21.59;47.12
21742;BME280;11033;47.490;11.116;2023-05-03T12:54:11;93558.44;;;21.32;46.57
21742;BME280;11033;47.490;11.116;2023-05-03T12:56:36;93553.13;;;21.70;45.79
21742;BME280;11033;47.490;11.116;2023-05-03T12:59:01;93551.50;;;21.91;46.25
21742;BME280;11033;47.490;11.116;2023-05-03T13:01:27;93559.53;;;21.69;44.92
21742;BME280;11033;47.490;11.116;2023-05-03T13:03:53;93567.81;;;22.06;46.09
21742;BME280;11033;47.490;11.116;2023-05-03T13:06:18;93700.84;;;32.20;33.01